Time;durP1;ratioP1;P1;durP2;ratioP2;P2;SDS_P1;SDS_P2;PMS_P1;PMS_P2;Temp;Humidity;BMP_temperature;BMP_pressure;BME280_temperature;BME280_humidity;BME280_pressure;Samples;Min_cycle;Max_cycle;Signal;HPM_P1;HPM_P2
2021/12/11 00:00:14;;;;;;;50.67;24.95;;;;;;;5.19;66.37;98850.69;4424852;32;33229;-75
2021/12/11 00:02:43;;;;;;;44.80;23.15;;;;;;;4.96;67.00;98850.87;4438632;32;33717;-75
2021/12/11 00:05:14;;;;;;;47.78;25.12;;;;;;;5.11;66.47;98850.81;4425145;32;34849;-75
2021/12/11 00:07:42;;;;;;;48.13;26.23;;;;;;;5.15;66.46;98852.13;4411933;32;32437;-74
2021/12/11 00:10:36;;;;;;;59.78;30.70;;;;;;;4.90;67.25;98860.66;4424541;32;32830;-74
2021/12/11 00:13:07;;;;;;;46.58;24.58;;;;;;;4.79;67.60;98863.03;4411916;32;33128;-74
2021/12/11 00:15:39;;;;;;;44.45;22.15;;;;;;;5.05;66.89;98868.75;4424546;32;35165;-74
2021/12/11 00:18:13;;;;;;;40.97;20.45;;;;;;;5.16;66.54;98878.28;4412120;32;33915;-75
2021/12/11 00:20:48;;;;;;;45.70;23.60;;;;;;;5.03;66.59;98867.25;4412009;32;31884;-75
2021/12/11 00:23:27;;;;;;;42.60;22.30;;;;;;;5.13;66.42;98876.78;4424207;32;33838;-75
2021/12/11 00:25:57;;;;;;;40.55;21.58;;;;;;;5.32;65.63;98882.59;4397457;32;33788;-75
2021/12/11 00:28:25;;;;;;;41.25;21.73;;;;;;;5.14;66.25;98893.94;4410897;32;34175;-74
2021/12/11 00:30:53;;;;;;;48.75;25.98;;;;;;;5.06;66.63;98891.34;4411031;32;34121;-75
2021/12/11 00:33:27;;;;;;;38.22;21.85;;;;;;;5.03;66.62;98897.19;4410773;32;33641;-75
2021/12/11 00:35:57;;;;;;;52.42;29.08;;;;;;;5.10;66.47;98892.66;4423332;32;33124;-75
2021/12/11 00:38:33;;;;;;;46.72;23.42;;;;;;;5.02;66.41;98911.81;4423670;32;34624;-74
2021/12/11 00:41:04;;;;;;;50.05;25.58;;;;;;;5.01;66.58;98912.84;4423713;32;31798;-74
2021/12/11 00:43:35;;;;;;;40.10;21.73;;;;;;;5.07;66.33;98909.34;4423920;32;33655;-74
2021/12/11 00:46:07;;;;;;;57.25;30.40;;;;;;;5.11;66.26;98913.38;4423964;32;34291;-74
2021/12/11 00:48:38;;;;;;;88.72;42.03;;;;;;;5.24;66.00;98921.66;4425428;32;33778;-74
2021/12/11 00:51:11;;;;;;;55.22;28.48;;;;;;;5.19;66.06;98933.13;4425923;32;31791;-74
2021/12/11 00:53:56;;;;;;;42.67;21.27;;;;;;;4.97;66.85;98942.28;4398926;32;32378;-75
2021/12/11 00:56:30;;;;;;;54.60;25.77;;;;;;;5.10;66.35;98945.16;4424120;32;34834;-75
2021/12/11 00:59:02;;;;;;;51.70;25.92;;;;;;;5.07;66.48;98958.31;4424018;32;33124;-75
2021/12/11 01:01:36;;;;;;;86.93;36.33;;;;;;;4.89;67.15;98951.41;4423506;32;33288;-75
2021/12/11 01:04:11;;;;;;;74.32;31.95;;;;;;;4.64;68.05;98952.75;4423574;32;34248;-75
2021/12/11 01:07:04;;;;;;;72.10;33.53;;;;;;;4.81;67.50;98947.94;4426251;32;34970;-74
2021/12/11 01:09:46;;;;;;;53.35;28.67;;;;;;;5.05;66.70;98944.06;4425835;32;34068;-74
2021/12/11 01:12:23;;;;;;;38.47;20.25;;;;;;;4.94;66.95;98954.38;4413391;32;34035;-75
2021/12/11 01:15:20;;;;;;;38.67;19.65;;;;;;;5.01;66.74;98946.31;4439722;32;33658;-75
2021/12/11 01:18:10;;;;;;;37.85;18.35;;;;;;;4.89;67.12;98953.28;4413274;32;33017;-75
2021/12/11 01:21:12;;;;;;;42.92;18.45;;;;;;;4.77;67.60;98958.34;4414749;32;32633;-75
2021/12/11 01:26:21;;;;;;;36.72;18.73;;;;;;;4.96;67.10;98959.63;4413390;32;32408;-74
2021/12/11 01:28:50;;;;;;;37.97;19.52;;;;;;;4.94;66.85;98962.56;4425735;32;33325;-75
2021/12/11 01:31:20;;;;;;;37.92;18.00;;;;;;;4.92;67.11;98948.31;4413356;32;33864;-75
2021/12/11 01:33:49;;;;;;;36.22;18.17;;;;;;;4.99;66.96;98955.69;4413483;32;33500;-75
2021/12/11 01:36:17;;;;;;;38.88;19.65;;;;;;;5.11;66.87;98965.03;4425722;32;33791;-75
2021/12/11 01:38:45;;;;;;;36.92;19.35;;;;;;;5.13;66.52;98955.66;4400625;32;33632;-75
2021/12/11 01:41:16;;;;;;;38.15;19.02;;;;;;;5.18;66.28;98964.09;4412524;32;34664;-75
2021/12/11 01:43:47;;;;;;;37.47;18.70;;;;;;;5.17;66.40;98969.72;4425314;32;32906;-76
2021/12/11 01:46:18;;;;;;;43.28;20.60;;;;;;;5.32;65.93;98970.50;4425732;32;33665;-75
2021/12/11 01:48:48;;;;;;;40.85;19.37;;;;;;;5.40;65.91;98973.09;4412914;32;35266;-75
2021/12/11 01:51:21;;;;;;;41.37;19.55;;;;;;;5.31;65.99;98976.97;4412603;32;33735;-74
2021/12/11 01:53:56;;;;;;;38.10;18.58;;;;;;;5.40;65.88;98981.25;4439300;32;33467;-75
2021/12/11 01:56:29;;;;;;;39.40;20.08;;;;;;;5.38;65.91;98988.75;4425749;32;33792;-75
2021/12/11 01:59:29;;;;;;;35.42;18.27;;;;;;;5.47;65.56;98976.72;4399984;32;32899;-75
2021/12/11 02:02:12;;;;;;;36.25;18.70;;;;;;;5.44;65.49;98968.94;4392202;32;32848;-75
2021/12/11 02:04:45;;;;;;;36.10;19.17;;;;;;;5.43;65.79;98967.25;4413050;32;32072;-75
2021/12/11 02:07:22;;;;;;;39.55;18.52;;;;;;;5.40;65.95;98980.41;4425718;32;34749;-74
2021/12/11 02:09:55;;;;;;;;;;;;;;;5.36;65.86;98974.50;4400857;32;33839;-75
2021/12/11 02:12:38;;;;;;;40.70;19.30;;;;;;;5.51;65.53;98964.41;4401172;32;33599;-75
2021/12/11 02:15:13;;;;;;;40.97;20.08;;;;;;;5.42;65.74;98960.12;4425806;32;33211;-74
2021/12/11 02:17:56;;;;;;;36.40;17.70;;;;;;;5.29;66.34;98952.66;4439350;32;33627;-74
2021/12/11 02:20:36;;;;;;;37.35;18.02;;;;;;;5.42;65.98;98953.84;4413174;32;33799;-74
2021/12/11 02:23:05;;;;;;;37.97;17.55;;;;;;;5.19;66.70;98956.78;4413464;32;34038;-75
2021/12/11 02:25:38;;;;;;;42.33;18.90;;;;;;;5.38;66.10;98950.66;4424907;32;33125;-75
2021/12/11 02:28:13;;;;;;;42.80;18.80;;;;;;;5.10;66.80;98955.19;4412161;32;33668;-75
2021/12/11 02:30:44;;;;;;;38.80;18.87;;;;;;;5.27;66.60;98952.03;4412248;32;35242;-75
2021/12/11 02:33:19;;;;;;;37.17;18.70;;;;;;;5.35;66.46;98955.66;4425196;32;33861;-75
2021/12/11 02:35:51;;;;;;;38.65;18.58;;;;;;;5.19;66.75;98951.34;4425359;32;33189;-75
2021/12/11 02:38:34;;;;;;;38.17;19.52;;;;;;;5.14;66.82;98956.50;4399694;32;33790;-75
2021/12/11 02:41:08;;;;;;;39.30;18.85;;;;;;;5.33;66.38;98955.84;4425033;32;32856;-75
2021/12/11 02:43:46;;;;;;;43.65;19.08;;;;;;;5.24;66.75;98955.13;4438857;32;33727;-74
2021/12/11 02:46:21;;;;;;;40.95;18.02;;;;;;;5.40;66.10;98942.31;4399658;32;32891;-74
2021/12/11 02:49:20;;;;;;;38.72;17.67;;;;;;;5.36;66.52;98951.91;4439124;32;33772;-74
2021/12/11 02:51:57;;;;;;;35.10;17.58;;;;;;;5.45;66.03;98954.31;4412420;32;32891;-74
2021/12/11 02:54:36;;;;;;;36.58;18.12;;;;;;;5.28;66.66;98952.88;4425241;32;33815;-75
2021/12/11 02:57:17;;;;;;;40.70;17.83;;;;;;;5.21;66.97;98957.37;4425282;32;33382;-75
2021/12/11 02:59:46;;;;;;;39.25;18.58;;;;;;;5.12;67.27;98950.41;4411905;32;33765;-75
2021/12/11 03:02:26;;;;;;;35.67;17.40;;;;;;;4.95;67.75;98939.75;4411980;32;33012;-75
2021/12/11 03:05:04;;;;;;;34.75;17.70;;;;;;;5.14;67.59;98934.75;4424089;32;34638;-75
2021/12/11 03:07:38;;;;;;;39.08;17.75;;;;;;;5.29;66.87;98932.78;4413760;32;33462;-74
2021/12/11 03:10:10;;;;;;;34.50;18.10;;;;;;;5.40;66.55;98936.88;4438278;32;33793;-74
2021/12/11 03:12:38;;;;;;;39.22;18.77;;;;;;;5.40;66.66;98936.88;4399995;32;32957;-75
2021/12/11 03:15:09;;;;;;;34.83;16.33;;;;;;;5.40;66.20;98940.44;4412382;32;33918;-75
2021/12/11 03:17:37;;;;;;;37.17;16.85;;;;;;;5.49;66.22;98943.88;4400160;32;32184;-74
2021/12/11 03:20:10;;;;;;;35.67;16.90;;;;;;;5.53;66.06;98950.59;4412202;32;33753;-74
2021/12/11 03:22:40;;;;;;;41.25;17.73;;;;;;;5.54;65.92;98964.03;4424987;32;34432;-75
2021/12/11 03:25:13;;;;;;;34.33;16.05;;;;;;;5.54;65.79;98961.31;4425372;32;34725;-74
2021/12/11 03:27:41;;;;;;;37.30;17.75;;;;;;;5.54;65.86;98980.34;4425082;32;34054;-74
2021/12/11 03:30:13;;;;;;;34.67;16.50;;;;;;;5.69;65.42;98984.91;4425149;32;33367;-75
2021/12/11 03:32:43;;;;;;;33.25;15.98;;;;;;;5.77;65.05;98984.75;4425414;32;34230;-74
2021/12/11 03:35:11;;;;;;;36.33;17.65;;;;;;;5.81;64.94;98991.50;4412725;32;34143;-75
2021/12/11 03:37:39;;;;;;;37.22;17.90;;;;;;;5.79;65.00;99004.47;4412243;32;33584;-75
2021/12/11 03:40:08;;;;;;;36.95;17.30;;;;;;;5.72;65.19;99007.12;4412447;32;33548;-75
2021/12/11 03:42:39;;;;;;;32.25;15.32;;;;;;;5.74;65.11;99009.66;4425020;32;35214;-74
2021/12/11 03:45:11;;;;;;;32.15;14.80;;;;;;;5.67;65.35;99012.31;4438494;32;33772;-74
2021/12/11 03:47:47;;;;;;;26.35;12.65;;;;;;;5.49;65.29;99020.91;4438228;32;33278;-75
2021/12/11 03:50:17;;;;;;;;;;;;;;;5.58;65.24;99024.34;4411783;32;32599;-75
2021/12/11 03:52:49;;;;;;;28.10;13.50;;;;;;;5.59;65.02;99013.28;4424479;32;34514;-75
2021/12/11 03:55:26;;;;;;;31.33;13.77;;;;;;;5.59;64.81;99009.72;4399531;32;33257;-76
2021/12/11 03:57:59;;;;;;;27.50;13.07;;;;;;;5.78;64.03;99011.78;4425106;32;33416;-74
2021/12/11 04:00:43;;;;;;;29.95;13.48;;;;;;;5.81;64.04;99005.97;4425664;32;34385;-75
2021/12/11 04:03:15;;;;;;;29.87;13.38;;;;;;;5.69;64.31;99001.22;4424437;32;34089;-75
2021/12/11 04:05:45;;;;;;;27.77;12.73;;;;;;;5.74;64.16;98996.88;4412014;32;33231;-75
2021/12/11 04:08:18;;;;;;;30.88;14.55;;;;;;;5.73;64.27;98994.34;4412218;32;32886;-76
2021/12/11 04:10:46;;;;;;;26.00;12.68;;;;;;;5.47;65.07;99008.53;4424809;32;33645;-75
2021/12/11 04:13:17;;;;;;;26.50;14.15;;;;;;;5.16;65.74;98992.50;4399393;32;33986;-74
2021/12/11 04:15:47;;;;;;;25.52;13.20;;;;;;;5.35;65.42;99012.78;4424371;32;34505;-75
2021/12/11 04:18:15;;;;;;;27.42;12.50;;;;;;;5.18;65.88;99013.03;4411766;32;34143;-74
2021/12/11 04:20:46;;;;;;;26.73;12.57;;;;;;;5.34;65.04;99020.09;4411341;32;32345;-75
2021/12/11 04:23:17;;;;;;;24.95;11.80;;;;;;;5.41;64.87;99012.88;4413335;32;34699;-75
2021/12/11 04:25:47;;;;;;;24.65;12.00;;;;;;;5.50;64.72;99014.44;4426194;32;32601;-74
2021/12/11 04:28:18;;;;;;;25.92;11.88;;;;;;;5.73;66.31;99013.41;4440167;32;34256;-75
2021/12/11 04:30:54;;;;;;;24.60;11.68;;;;;;;5.83;65.77;99016.66;4413987;32;33861;-74
2021/12/11 04:33:26;;;;;;;27.10;11.77;;;;;;;5.74;64.88;99015.09;4426120;32;33192;-75
2021/12/11 04:35:54;;;;;;;21.67;10.75;;;;;;;5.85;64.00;99022.75;4425553;32;33920;-75
2021/12/11 04:38:24;;;;;;;24.25;11.18;;;;;;;5.76;63.95;99029.34;4400611;32;31733;-74
2021/12/11 04:40:55;;;;;;;25.67;11.70;;;;;;;5.34;64.97;99041.88;4413038;32;33563;-74
2021/12/11 04:43:26;;;;;;;27.25;12.50;;;;;;;4.93;65.75;99034.28;4425755;32;33004;-74
2021/12/11 04:46:05;;;;;;;27.40;13.00;;;;;;;5.01;65.40;99035.22;4426156;32;33901;-75
2021/12/11 04:49:05;;;;;;;25.83;12.68;;;;;;;5.25;64.68;99032.13;4425904;32;33233;-74
2021/12/11 04:51:44;;;;;;;23.45;11.75;;;;;;;5.52;63.81;99030.56;4427601;32;34417;-74
2021/12/11 04:57:51;;;;;;;25.62;12.23;;;;;;;5.30;64.58;99035.97;4413390;32;33258;-75
2021/12/11 05:05:49;;;;;;;23.92;11.45;;;;;;;5.54;63.80;99036.66;4439608;32;34396;-74
2021/12/11 05:11:00;;;;;;;23.75;11.00;;;;;;;5.38;64.22;99053.22;4426363;32;33025;-74
2021/12/11 05:13:29;;;;;;;25.83;11.25;;;;;;;5.39;64.06;99060.34;4427532;32;34607;-74
2021/12/11 05:16:02;;;;;;;23.00;10.63;;;;;;;5.24;64.32;99069.38;4426163;32;35083;-74
2021/12/11 05:18:31;;;;;;;22.55;11.07;;;;;;;5.35;64.16;99067.22;4426098;32;33683;-75
2021/12/11 05:21:03;;;;;;;21.42;11.00;;;;;;;5.04;64.48;99067.47;4412766;32;33179;-74
2021/12/11 05:23:33;;;;;;;22.27;10.65;;;;;;;5.18;64.25;99067.44;4424735;32;34359;-74
2021/12/11 05:26:01;;;;;;;19.40;9.45;;;;;;;5.12;64.56;99061.91;4425190;32;35053;-75
2021/12/11 05:28:29;;;;;;;20.55;10.18;;;;;;;5.37;63.99;99071.44;4425883;32;32611;-75
2021/12/11 05:30:59;;;;;;;20.70;10.05;;;;;;;5.41;63.73;99075.44;4425673;32;33223;-75
2021/12/11 05:33:27;;;;;;;20.15;10.05;;;;;;;5.44;63.60;99060.62;4425055;32;33638;-75
2021/12/11 05:35:54;;;;;;;21.40;10.10;;;;;;;5.26;63.90;99064.59;4425787;32;35014;-74
2021/12/11 05:38:24;;;;;;;17.98;9.00;;;;;;;5.45;63.22;99075.91;4400057;32;32374;-74
2021/12/11 05:40:58;;;;;;;20.20;10.60;;;;;;;5.45;63.23;99076.75;4425983;32;34101;-74
2021/12/11 05:43:26;;;;;;;22.10;10.38;;;;;;;5.04;64.28;99086.50;4425755;32;33670;-74
2021/12/11 05:45:54;;;;;;;19.40;10.30;;;;;;;5.07;64.44;99080.69;4412817;32;34424;-75
2021/12/11 05:48:22;;;;;;;21.60;10.13;;;;;;;5.12;64.19;99076.38;4399831;32;32386;-74
2021/12/11 05:50:54;;;;;;;23.70;11.07;;;;;;;5.17;64.00;99084.81;4412971;32;33236;-74
2021/12/11 05:53:25;;;;;;;19.55;9.82;;;;;;;5.15;64.02;99086.87;4425152;32;33573;-75
2021/12/11 05:55:56;;;;;;;20.25;9.63;;;;;;;5.14;64.18;99087.91;4424867;32;32849;-73
2021/12/11 05:58:45;;;;;;;19.90;9.88;;;;;;;5.33;63.90;99104.63;4425425;32;34095;-74
2021/12/11 06:01:21;;;;;;;24.60;11.77;;;;;;;5.32;63.82;99106.53;4427720;32;33287;-73
2021/12/11 06:03:51;;;;;;;;;;;;;;;5.19;63.96;99111.81;4425654;32;33729;-73
2021/12/11 06:06:24;;;;;;;26.17;12.05;;;;;;;5.09;64.22;99113.97;4425619;32;34634;-73
2021/12/11 06:08:52;;;;;;;19.60;11.10;;;;;;;4.81;64.70;99132.78;4425560;32;33863;-74
2021/12/11 06:11:20;;;;;;;21.15;10.82;;;;;;;4.56;65.57;99143.91;4412870;32;34253;-73
2021/12/11 06:13:53;;;;;;;19.87;10.50;;;;;;;4.75;64.86;99138.97;4412546;32;33679;-74
2021/12/11 06:16:27;;;;;;;24.33;10.73;;;;;;;5.04;64.15;99158.03;4413130;32;34590;-74
2021/12/11 06:18:54;;;;;;;25.30;13.07;;;;;;;4.66;64.97;99168.09;4425019;32;33894;-73
2021/12/11 06:21:22;;;;;;;27.65;13.18;;;;;;;5.00;64.23;99174.91;4400340;32;32369;-73
2021/12/11 06:23:50;;;;;;;25.00;13.02;;;;;;;4.93;64.30;99178.37;4425049;32;33649;-73
2021/12/11 06:26:17;;;;;;;22.87;11.63;;;;;;;5.13;63.88;99186.84;4413037;32;34286;-73
2021/12/11 06:29:07;;;;;;;23.12;11.07;;;;;;;5.07;64.30;99182.16;4413130;32;33985;-73
2021/12/11 06:31:35;;;;;;;25.42;11.75;;;;;;;4.72;65.07;99189.12;4438767;32;34213;-74
2021/12/11 06:34:09;;;;;;;24.87;11.85;;;;;;;4.89;64.52;99190.66;4425203;32;33830;-73
2021/12/11 06:39:30;;;;;;;22.30;11.45;;;;;;;4.94;64.30;99204.53;4424528;32;32495;-73
2021/12/11 06:42:00;;;;;;;24.95;11.98;;;;;;;5.07;64.26;99212.06;4417683;32;32853;-73
2021/12/11 06:44:33;;;;;;;22.45;11.88;;;;;;;4.93;64.63;99216.44;4425685;32;32249;-73
2021/12/11 06:47:07;;;;;;;22.80;11.73;;;;;;;4.51;66.03;99227.03;4426895;32;33016;-73
2021/12/11 06:49:38;;;;;;;42.95;21.58;;;;;;;4.43;65.96;99227.09;4440216;32;34042;-73
2021/12/11 06:52:10;;;;;;;28.95;15.77;;;;;;;4.61;65.86;99224.88;4427548;32;32716;-73
2021/12/11 06:54:38;;;;;;;25.90;12.93;;;;;;;4.00;67.49;99234.81;4426390;32;32316;-74
2021/12/11 06:57:06;;;;;;;23.45;11.35;;;;;;;4.25;66.93;99243.66;4454530;32;35401;-73
2021/12/11 06:59:35;;;;;;;24.15;12.37;;;;;;;4.80;65.31;99246.13;4426048;32;33480;-73
2021/12/11 07:02:03;;;;;;;23.25;12.68;;;;;;;4.78;65.40;99253.63;4426256;32;32103;-74
2021/12/11 07:04:31;;;;;;;25.37;12.35;;;;;;;4.41;66.20;99262.59;4427359;32;34708;-73
2021/12/11 07:06:59;;;;;;;19.62;11.25;;;;;;;4.32;66.59;99265.53;4427124;32;34397;-75
2021/12/11 07:09:28;;;;;;;20.52;10.18;;;;;;;4.51;65.94;99267.78;4426769;32;34953;-73
2021/12/11 07:11:57;;;;;;;18.73;9.50;;;;;;;4.89;68.71;99264.06;4439912;32;33706;-73
2021/12/11 07:14:28;;;;;;;20.70;10.70;;;;;;;5.08;66.21;99286.34;4426783;32;32262;-73
2021/12/11 07:16:56;;;;;;;22.23;10.88;;;;;;;5.15;64.94;99295.47;4427415;32;33805;-73
2021/12/11 07:19:24;;;;;;;19.12;9.90;;;;;;;5.11;64.64;99305.03;4426853;32;32631;-73
2021/12/11 07:21:54;;;;;;;20.52;10.88;;;;;;;5.23;64.01;99301.66;4427105;32;31768;-73
2021/12/11 07:24:32;;;;;;;20.45;10.98;;;;;;;5.22;63.98;99315.44;4427432;32;33813;-73
2021/12/11 07:27:03;;;;;;;23.55;12.48;;;;;;;5.35;63.44;99323.81;4426940;32;33659;-73
2021/12/11 07:29:32;;;;;;;25.12;11.93;;;;;;;5.26;63.79;99327.63;4427343;32;32790;-73
2021/12/11 07:32:00;;;;;;;22.20;11.15;;;;;;;5.15;64.02;99330.81;4453207;32;33272;-73
2021/12/11 07:34:28;;;;;;;20.20;10.07;;;;;;;5.17;63.74;99334.22;4454506;32;34019;-73
2021/12/11 07:36:57;;;;;;;23.02;10.38;;;;;;;5.24;63.06;99337.84;4429107;32;33926;-73
2021/12/11 07:39:39;;;;;;;18.40;9.82;;;;;;;5.14;63.43;99351.72;4432331;32;33757;-73
2021/12/11 07:42:07;;;;;;;21.48;10.07;;;;;;;5.08;63.63;99346.19;4434421;32;34260;-73
2021/12/11 07:44:35;;;;;;;20.00;10.05;;;;;;;5.12;63.45;99344.78;4442089;32;33845;-73
2021/12/11 07:47:05;;;;;;;20.55;9.70;;;;;;;5.01;63.92;99350.66;4442155;32;32943;-73
2021/12/11 07:49:33;;;;;;;20.85;10.60;;;;;;;5.11;63.38;99346.66;4442010;32;32449;-73
2021/12/11 07:52:00;;;;;;;25.75;13.13;;;;;;;5.31;62.77;99341.53;4441907;32;31882;-73
2021/12/11 07:54:28;;;;;;;22.52;10.77;;;;;;;5.25;63.26;99337.66;4442804;32;33761;-73
2021/12/11 07:56:56;;;;;;;19.10;9.25;;;;;;;5.27;63.47;99338.34;4468681;32;34460;-73
2021/12/11 07:59:27;;;;;;;19.02;9.30;;;;;;;5.23;63.30;99330.72;4455700;32;33982;-73
2021/12/11 08:01:55;;;;;;;16.55;8.98;;;;;;;5.43;62.62;99329.19;4454942;32;33290;-73
2021/12/11 08:04:23;;;;;;;18.20;8.60;;;;;;;5.42;62.97;99341.09;4441563;32;31804;-73
2021/12/11 08:06:52;;;;;;;19.42;8.68;;;;;;;5.41;62.92;99333.97;4454842;32;32505;-73
2021/12/11 08:09:21;;;;;;;17.27;8.25;;;;;;;5.29;63.18;99335.44;4454177;32;34129;-73
2021/12/11 08:11:50;;;;;;;15.10;7.65;;;;;;;5.17;63.09;99339.66;4442073;32;33209;-73
2021/12/11 08:14:18;;;;;;;15.38;7.90;;;;;;;5.27;62.70;99348.38;4441629;32;33634;-73
2021/12/11 08:16:47;;;;;;;14.45;8.02;;;;;;;5.26;62.70;99349.41;4454886;32;35005;-73
2021/12/11 08:19:18;;;;;;;17.87;9.27;;;;;;;5.32;62.43;99351.38;4454820;32;33904;-74
2021/12/11 08:21:49;;;;;;;18.83;9.70;;;;;;;5.26;62.51;99354.84;4441630;32;31812;-74
2021/12/11 08:24:17;;;;;;;20.08;10.55;;;;;;;4.45;63.97;99364.44;4454890;32;34372;-73
2021/12/11 08:26:45;;;;;;;18.92;9.52;;;;;;;4.73;63.98;99351.19;4441529;32;32670;-74
2021/12/11 08:29:15;;;;;;;43.40;21.95;;;;;;;4.91;62.89;99357.19;4454162;32;34002;-73
2021/12/11 08:31:46;;;;;;;28.15;14.07;;;;;;;5.01;63.02;99362.38;4441617;32;33461;-73
2021/12/11 08:34:13;;;;;;;15.98;8.57;;;;;;;5.19;62.71;99370.22;4440084;32;34115;-74
2021/12/11 08:36:43;;;;;;;13.98;6.47;;;;;;;5.21;62.33;99368.16;4416322;32;35217;-74
2021/12/11 08:39:13;;;;;;;12.30;5.95;;;;;;;5.13;62.37;99369.09;4441431;32;34591;-73
2021/12/11 08:41:42;;;;;;;11.45;5.70;;;;;;;5.06;61.83;99365.41;4447053;32;33153;-73
2021/12/11 08:44:13;;;;;;;12.52;6.43;;;;;;;4.99;61.71;99375.31;4430896;32;33304;-73
2021/12/11 08:46:45;;;;;;;13.88;6.65;;;;;;;5.14;61.97;99378.94;4410612;32;33904;-73
2021/12/11 08:49:22;;;;;;;14.60;8.68;;;;;;;5.24;61.52;99365.06;4438982;26;33374;-87
2021/12/11 08:52:02;;;;;;;12.77;6.55;;;;;;;4.47;64.03;99375.13;4416000;32;30494;-83
2021/12/11 08:54:31;;;;;;;14.70;7.12;;;;;;;4.88;65.05;99373.00;4392721;32;33671;-83
2021/12/11 08:57:00;;;;;;;13.73;6.80;;;;;;;5.10;62.92;99374.03;4389221;32;32829;-83
2021/12/11 08:59:29;;;;;;;13.52;7.05;;;;;;;5.16;62.48;99387.75;4399417;32;32450;-82
2021/12/11 09:02:34;;;;;;;11.65;5.97;;;;;;;5.32;62.26;99385.91;4393642;32;33778;-83
2021/12/11 09:05:11;;;;;;;12.15;6.45;;;;;;;4.58;63.51;99386.44;4393786;32;32341;-84
2021/12/11 09:07:53;;;;;;;14.82;7.65;;;;;;;4.48;64.14;99391.25;4407377;32;34195;-84
2021/12/11 09:10:41;;;;;;;16.83;9.15;;;;;;;4.57;63.83;99392.88;4395556;32;33999;-84
2021/12/11 09:13:25;;;;;;;16.37;8.13;;;;;;;4.89;63.02;99397.28;4396537;32;33177;-83
2021/12/11 09:16:14;;;;;;;14.90;7.57;;;;;;;5.04;62.76;99399.25;4413792;32;33549;-84
2021/12/11 09:18:55;;;;;;;11.38;5.62;;;;;;;4.89;63.23;99408.16;4418764;32;34483;-83
2021/12/11 09:21:30;;;;;;;13.32;6.47;;;;;;;4.53;63.92;99415.19;4402317;32;33397;-84
2021/12/11 09:24:04;;;;;;;20.08;9.88;;;;;;;4.53;63.54;99409.75;4408840;32;33342;-84
2021/12/11 09:26:48;;;;;;;13.07;7.43;;;;;;;4.29;65.37;99418.84;4395507;32;32235;-84
2021/12/11 09:29:34;;;;;;;13.30;6.75;;;;;;;4.73;63.74;99427.28;4395446;32;34110;-84
2021/12/11 09:32:22;;;;;;;11.88;6.07;;;;;;;4.81;63.52;99427.25;4395674;32;33374;-83
2021/12/11 09:35:11;;;;;;;13.27;6.57;;;;;;;4.99;62.78;99434.28;4395503;32;31632;-84
2021/12/11 09:37:41;;;;;;;11.90;5.45;;;;;;;5.26;62.08;99431.88;4399025;32;33489;-84
2021/12/11 09:40:16;;;;;;;10.82;5.25;;;;;;;5.13;62.42;99433.53;4395877;32;34495;-83
2021/12/11 09:42:44;;;;;;;13.73;6.22;;;;;;;5.15;62.11;99445.06;4408358;32;32096;-84
2021/12/11 09:45:19;;;;;;;10.68;5.70;;;;;;;5.28;61.68;99442.56;4402147;32;31894;-84
2021/12/11 09:47:54;;;;;;;13.27;6.10;;;;;;;5.14;61.93;99448.81;4413466;32;33947;-84
2021/12/11 09:50:30;;;;;;;11.05;6.05;;;;;;;5.23;61.87;99454.00;4395075;32;33969;-84
2021/12/11 09:52:58;;;;;;;;;;;;;;;5.30;61.47;99438.63;4383878;32;32476;-84
2021/12/11 09:55:33;;;;;;;11.65;6.05;;;;;;;5.14;62.31;99436.06;4408322;32;33065;-84
2021/12/11 09:58:10;;;;;;;13.67;6.70;;;;;;;5.29;61.84;99433.38;4395946;32;33719;-83
2021/12/11 10:00:46;;;;;;;13.57;7.25;;;;;;;5.37;60.95;99427.03;4395642;32;34539;-85
2021/12/11 10:03:17;;;;;;;10.68;6.35;;;;;;;5.38;61.63;99426.84;4403859;32;32523;-85
2021/12/11 10:05:56;;;;;;;11.30;5.10;;;;;;;5.20;61.77;99407.28;4415282;32;33517;-84
2021/12/11 10:08:35;;;;;;;10.52;5.18;;;;;;;5.22;62.29;99411.50;4400857;32;33028;-84
2021/12/11 10:11:27;;;;;;;12.10;5.40;;;;;;;5.17;62.19;99411.22;4413625;32;34788;-85
2021/12/11 10:14:08;;;;;;;9.60;5.43;;;;;;;5.17;61.37;99400.34;4404543;32;33038;-84
2021/12/11 10:16:40;;;;;;;12.63;6.25;;;;;;;5.32;61.22;99410.41;4399127;32;31876;-85
2021/12/11 10:19:10;;;;;;;13.00;6.60;;;;;;;5.38;61.14;99418.69;4397797;32;32246;-84
2021/12/11 10:21:44;;;;;;;31.55;15.93;;;;;;;5.48;61.03;99413.84;4403425;32;35051;-84
2021/12/11 10:24:18;;;;;;;26.02;12.73;;;;;;;5.30;61.51;99408.72;4405318;32;34641;-85
2021/12/11 10:26:53;;;;;;;28.33;13.90;;;;;;;5.41;61.43;99415.59;4396519;32;33391;-84
2021/12/11 10:29:31;;;;;;;27.33;13.30;;;;;;;5.45;61.48;99405.19;4416381;32;33622;-84
2021/12/11 10:32:06;;;;;;;17.83;8.57;;;;;;;5.61;61.62;99403.19;4405988;32;32942;-85
2021/12/11 10:34:37;;;;;;;13.50;6.95;;;;;;;5.54;61.91;99413.09;4407567;32;33719;-84
2021/12/11 10:37:07;;;;;;;13.20;6.70;;;;;;;5.66;61.68;99418.12;4395077;32;34136;-84
2021/12/11 10:39:37;;;;;;;11.95;6.57;;;;;;;5.59;61.48;99418.84;4412143;32;33660;-84
2021/12/11 10:42:05;;;;;;;9.70;5.47;;;;;;;5.70;60.98;99427.59;4393443;32;32774;-84
2021/12/11 10:44:37;;;;;;;12.02;6.47;;;;;;;5.43;61.82;99434.47;4395598;32;32438;-85
2021/12/11 10:47:13;;;;;;;10.27;5.45;;;;;;;4.86;63.69;99437.59;4410965;32;33137;-83
2021/12/11 10:49:50;;;;;;;11.52;5.62;;;;;;;5.49;61.77;99436.47;4426267;32;32170;-84
2021/12/11 10:52:26;;;;;;;12.05;5.82;;;;;;;5.38;62.06;99432.28;4406839;32;34393;-83
2021/12/11 10:55:00;;;;;;;10.88;5.90;;;;;;;5.29;61.93;99428.78;4405255;32;33986;-83
2021/12/11 10:57:30;;;;;;;11.15;5.55;;;;;;;5.34;61.56;99432.84;4405545;32;31717;-83
2021/12/11 10:59:59;;;;;;;22.92;11.35;;;;;;;5.38;61.34;99423.28;4403366;32;33787;-84
2021/12/11 11:02:31;;;;;;;17.33;9.18;;;;;;;5.41;61.77;99422.91;4402360;32;35163;-84
2021/12/11 11:05:07;;;;;;;13.60;7.43;;;;;;;5.37;61.92;99419.72;4416144;32;32475;-83
2021/12/11 11:07:40;;;;;;;13.80;6.78;;;;;;;5.29;62.27;99417.06;4404601;32;33278;-85
2021/12/11 11:10:20;;;;;;;12.50;7.15;;;;;;;5.45;61.37;99413.34;4403533;32;33659;-84
2021/12/11 11:12:49;;;;;;;12.45;6.50;;;;;;;5.66;61.33;99402.62;4408915;32;34157;-84
2021/12/11 11:15:21;;;;;;;11.63;6.68;;;;;;;5.43;61.67;99416.25;4396427;32;32631;-84
2021/12/11 11:17:50;;;;;;;11.27;6.43;;;;;;;5.08;62.41;99411.44;4398118;32;32889;-85
2021/12/11 11:20:24;;;;;;;12.18;6.28;;;;;;;5.38;61.72;99420.56;4410126;32;33664;-84
2021/12/11 11:22:53;;;;;;;9.77;5.47;;;;;;;5.47;61.50;99417.59;4409379;32;34629;-84
2021/12/11 11:25:36;;;;;;;11.63;6.57;;;;;;;5.18;61.90;99417.50;4408758;32;34809;-84
2021/12/11 11:28:07;;;;;;;28.45;13.93;;;;;;;5.25;62.33;99413.00;4396922;32;34115;-84
2021/12/11 11:30:47;;;;;;;20.17;10.25;;;;;;;5.14;62.68;99408.00;4400411;32;35229;-83
2021/12/11 11:33:16;;;;;;;14.35;8.88;;;;;;;5.53;61.78;99405.97;4387427;32;33902;-85
2021/12/11 11:36:02;;;;;;;13.40;7.30;;;;;;;5.24;62.63;99411.31;4414325;32;34457;-84
2021/12/11 11:38:56;;;;;;;21.30;11.48;;;;;;;5.50;61.92;99408.22;4417319;32;33395;-84
2021/12/11 11:41:50;;;;;;;18.95;8.68;;;;;;;5.27;62.84;99409.06;4401244;32;33275;-84
2021/12/11 11:44:42;;;;;;;19.23;8.32;;;;;;;5.25;62.81;99402.12;4418344;32;34232;-85
2021/12/11 11:47:33;;;;;;;15.70;8.43;;;;;;;5.40;62.49;99400.31;4399836;32;32145;-84
2021/12/11 11:50:26;;;;;;;16.33;9.40;;;;;;;5.40;62.07;99416.63;4317160;32;2939947;-84
2021/12/11 11:53:13;;;;;;;13.32;7.35;;;;;;;5.56;61.86;99421.09;4398481;32;33717;-84
2021/12/11 11:56:16;;;;;;;15.02;8.60;;;;;;;5.64;61.59;99423.75;4391655;32;33000;-84
2021/12/11 11:59:10;;;;;;;13.02;6.90;;;;;;;5.59;62.04;99432.47;4380458;32;34956;-84
2021/12/11 12:02:16;;;;;;;17.12;9.00;;;;;;;6.00;60.82;99434.81;4397322;32;33200;-84
2021/12/11 12:05:11;;;;;;;17.40;8.77;;;;;;;5.80;60.63;99439.94;4384941;32;34526;-84
2021/12/11 12:08:08;;;;;;;30.55;12.45;;;;;;;5.96;60.78;99447.09;4398106;32;33977;-84
2021/12/11 12:11:23;;;;;;;36.10;13.65;;;;;;;5.97;61.22;99442.50;4402014;32;32880;-83
2021/12/11 12:14:33;;;;;;;31.87;20.77;;;;;;;6.14;61.05;99452.22;4406841;32;34721;-84
2021/12/11 12:17:37;;;;;;;48.78;29.77;;;;;;;6.07;61.02;99457.56;4398709;32;34453;-82
2021/12/11 12:20:23;;;;;;;24.83;16.45;;;;;;;5.90;60.75;99451.41;4381169;32;33798;-86